• Join FlightAware (Why Join?)
  • Login
  • US Flag 
03:25PM EDT


 

Airport Tracker/Info


-or-


 

Live Flight TrackerFlight Track Log ✈ PDT4314 ✈ 02-Sep-2013 ✈ KBGM - KPHL

Flight Track Log - Related Links

Times and Time Zones

All times are in EDT time to prevent confusion due to time zone crossing. See the PDT4314 flight status page for this flight to view local times or setup timezone preferences in your user account.

Time Position Orientation Groundspeed Altitude Reporting Facility
EDT Latitude Longitude Course Direction KTS MPH feet Rate Location/Type
06:16PM 41.8439 -75.8608 180° South  Level Estimated
06:17PM 41.7897 -75.9027 210° Southwest  Level FlightAware Approximate
06:18PM 41.7293 -75.8812 154° Southeast  Level Estimated
06:19PM 41.6689 -75.8597 160° South  Level Estimated
06:20PM 41.6084 -75.8383 159° South  Level Estimated
06:21PM 41.5494 -75.8175 165° South  Level FlightAware Approximate
06:22PM 41.4905 -75.7967 153° Southeast  Level Estimated
06:23PM 41.4315 -75.7759 161° South  Level Estimated
06:24PM 41.3753 -75.7443 157° South  Level FlightAware Approximate
06:25PM 41.3191 -75.7127 157° South  Level FlightAware Approximate
06:26PM 41.2599 -75.6930 162° South  Level Estimated
06:27PM 41.2026 -75.6651 160° South  Level FlightAware Approximate
06:28PM 41.1453 -75.6372 160° South  Level FlightAware Approximate
06:29PM 41.0880 -75.6093 160° South  Level FlightAware Approximate
06:30PM 41.0308 -75.5816 160° South  Level FlightAware Approximate
06:31PM 40.9712 -75.5638 163° South  Level Estimated
06:32PM 40.9135 -75.5379 161° South  Level FlightAware Approximate
06:33PM 40.8557 -75.5120 161° South  Level FlightAware Approximate
06:34PM 40.7979 -75.4862 161° South  Level FlightAware Approximate
06:35PM 40.7401 -75.4604 161° South  Level FlightAware Approximate
06:36PM 40.6802 -75.4451 190° South  Level Estimated
06:36PM 40.6500 -75.8333 190° South 216 249 5,000  Level Philadelphia TRACON
06:37PM 40.6208 -75.4632 193° South  Level FlightAware Approximate
06:37PM 40.5667 -75.8333 180° South 208 239 5,000  Level Philadelphia TRACON
06:38PM 40.5613 -75.4813 193° South  Level FlightAware Approximate
06:38PM 40.5167 -75.8000 153° Southeast 218 251 5,000  Level Philadelphia TRACON
06:39PM 40.5024 -75.4606 187° South  Level Estimated
06:39PM 40.4667 -75.7667 153° Southeast 207 238 5,000  Level Philadelphia TRACON
06:40PM 40.4461 -75.4914 203° Southwest  Level FlightAware Approximate
06:40PM 40.4333 -75.7167 131° Southeast 203 234 5,000  Level Philadelphia TRACON
06:41PM 40.3882 -75.4660 190° South  Level Estimated
06:41PM 40.3667 -75.6833 159° South 209 241 5,000  Level Philadelphia TRACON
06:42PM 40.3333 -75.6500 143° Southeast 210 242 5,000  Level Philadelphia TRACON
06:43PM 40.2667 -75.6000 150° Southeast 211 243 5,000  Level Philadelphia TRACON
06:44PM 40.2167 -75.5667 153° Southeast 210 242 5,000  Level Philadelphia TRACON
06:45PM 40.2167 -75.5000 90° East 215 247 5,000 -120 Level Philadelphia TRACON
06:46PM 40.2167 -75.4333 90° East 214 246 4,800 -480 Descending Philadelphia TRACON
06:47PM 40.2000 -75.3667 108° East 174 200 4,000 -420 Descending Philadelphia TRACON
06:48PM 40.1667 -75.3667 180° South 173 199 4,000 -120 Level Philadelphia TRACON
06:49PM 40.1167 -75.3500 166° South 193 222 3,800 -540 Descending Philadelphia TRACON
06:50PM 40.0667 -75.3167 153° Southeast 198 228 3,000 -660 Descending Philadelphia TRACON
06:51PM 40.0167 -75.3000 166° South 176 203 2,500 -720 Descending Philadelphia TRACON
06:52PM 39.9667 -75.2833 166° South 164 189 1,600 -780 Descending Philadelphia TRACON
06:53PM 39.9333 -75.2667 159° South 104 120 900 -660 Descending Philadelphia TRACON
06:54PM 39.9000 -75.2500 159° South 107 123 400 -600 Descending Philadelphia TRACON
06:56PM 39.8667 -75.2333 150° Southeast  Level FlightAware Approximate